Time;durP1;ratioP1;P1;durP2;ratioP2;P2;SDS_P1;SDS_P2;PMS_P1;PMS_P2;Temp;Humidity;BMP_temperature;BMP_pressure;BME280_temperature;BME280_humidity;BME280_pressure;Samples;Min_cycle;Max_cycle;Signal;HPM_P1;HPM_P2
2022/05/05 00:00:14;;;;;;;10.20;5.78;;;8.10;99.90;;;;;;5043039;28;20067;-81
2022/05/05 00:02:40;;;;;;;10.00;5.90;;;8.10;99.90;;;;;;5028488;28;20095;-81
2022/05/05 00:05:06;;;;;;;13.10;6.22;;;8.00;99.90;;;;;;5044086;28;20032;-81
2022/05/05 00:07:31;;;;;;;11.35;6.65;;;8.00;99.90;;;;;;5046402;28;20040;-82
2022/05/05 00:09:57;;;;;;;10.32;5.68;;;7.90;99.90;;;;;;5045303;28;20045;-81
2022/05/05 00:15:07;;;;;;;8.85;5.35;;;8.00;99.90;;;;;;5043937;28;20044;-82
2022/05/05 00:17:34;;;;;;;12.25;5.93;;;7.90;99.90;;;;;;5043920;28;20041;-82
2022/05/05 00:20:00;;;;;;;10.77;5.47;;;7.80;99.90;;;;;;5029370;28;20100;-83
2022/05/05 00:22:26;;;;;;;11.80;5.70;;;7.80;99.90;;;;;;5028528;28;20116;-82
2022/05/05 00:24:52;;;;;;;11.65;5.80;;;7.90;99.90;;;;;;5025169;28;20248;-82
2022/05/05 00:27:17;;;;;;;11.13;5.88;;;7.90;99.90;;;;;;5049046;28;20091;-83
2022/05/05 00:29:43;;;;;;;9.95;5.53;;;7.90;99.90;;;;;;5031567;28;20478;-83
2022/05/05 00:32:08;;;;;;;9.07;5.80;;;7.80;99.90;;;;;;5032036;28;20052;-82
2022/05/05 00:34:34;;;;;;;10.25;5.97;;;7.80;99.90;;;;;;5047721;28;20037;-82
2022/05/05 00:37:00;;;;;;;11.82;6.30;;;7.70;99.90;;;;;;5031618;28;20025;-83
2022/05/05 00:39:25;;;;;;;9.15;5.82;;;7.80;99.90;;;;;;5032328;28;20041;-82
2022/05/05 00:41:52;;;;;;;9.73;5.95;;;7.90;99.90;;;;;;5049178;28;20087;-82
2022/05/05 00:44:18;;;;;;;8.55;5.40;;;8.00;99.90;;;;;;5048162;28;20444;-83
2022/05/05 00:46:51;;;;;;;10.98;5.93;;;7.90;99.90;;;;;;5035919;28;20104;-83
2022/05/05 00:49:17;;;;;;;11.55;6.43;;;7.90;99.90;;;;;;5066619;28;20049;-82
2022/05/05 00:51:43;;;;;;;13.32;6.45;;;7.90;99.90;;;;;;5035597;28;20043;-82
2022/05/05 00:54:09;;;;;;;9.43;5.93;;;8.00;99.90;;;;;;5052186;28;20041;-83
2022/05/05 00:56:36;;;;;;;9.93;6.07;;;8.00;99.90;;;;;;5051914;28;20040;-83
2022/05/05 00:59:02;;;;;;;9.88;6.57;;;8.00;99.90;;;;;;5051907;28;20052;-84
2022/05/05 01:01:27;;;;;;;9.52;6.05;;;8.00;99.90;;;;;;5035912;28;20033;-82
2022/05/05 01:03:53;;;;;;;10.73;6.13;;;8.00;99.90;;;;;;5034913;28;20056;-83
2022/05/05 01:06:19;;;;;;;10.15;6.03;;;8.00;99.90;;;;;;5052500;28;20032;-83
2022/05/05 01:08:46;;;;;;;10.27;6.15;;;8.00;99.90;;;;;;5026980;28;20087;-82
2022/05/05 01:11:12;;;;;;;9.82;6.10;;;8.10;99.90;;;;;;5050251;28;20072;-83
2022/05/05 01:13:39;;;;;;;13.82;6.00;;;8.10;99.90;;;;;;5035667;28;20075;-84
2022/05/05 01:16:06;;;;;;;10.88;6.65;;;8.10;99.90;;;;;;5032533;28;20033;-83
2022/05/05 01:18:32;;;;;;;11.18;6.57;;;8.10;99.90;;;;;;5069054;28;20041;-82
2022/05/05 01:20:58;;;;;;;12.77;6.88;;;8.20;99.90;;;;;;5050451;28;20032;-83
2022/05/05 01:23:23;;;;;;;10.90;6.45;;;8.10;99.90;;;;;;5052159;28;20047;-82
2022/05/05 01:28:39;;;;;;;10.32;6.28;;;8.10;99.90;;;;;;5050013;28;20496;-83
2022/05/05 01:31:07;;;;;;;10.68;6.18;;;8.20;99.90;;;;;;5050435;28;20083;-84
2022/05/05 01:33:33;;;;;;;11.25;6.53;;;8.20;99.90;;;;;;5035178;28;20037;-83
2022/05/05 01:36:00;;;;;;;14.95;6.88;;;8.20;99.90;;;;;;5048952;28;20112;-83
2022/05/05 01:38:36;;;;;;;10.15;6.97;;;8.10;99.90;;;;;;5052040;28;20036;-84
2022/05/05 01:41:04;;;;;;;10.77;6.82;;;8.20;99.90;;;;;;5035504;28;20032;-84
2022/05/05 01:43:29;;;;;;;10.50;6.63;;;8.20;99.90;;;;;;5034360;28;20036;-83
2022/05/05 01:45:55;;;;;;;10.50;6.10;;;8.20;99.90;;;;;;5034298;28;20569;-84
2022/05/05 01:48:21;;;;;;;14.40;6.65;;;8.20;99.90;;;;;;5050676;28;20036;-85
2022/05/05 01:50:48;;;;;;;14.00;7.30;;;8.20;99.90;;;;;;5052355;28;20113;-84
2022/05/05 01:53:14;;;;;;;11.77;6.13;;;8.20;99.90;;;;;;5034616;28;20062;-83
2022/05/05 01:55:40;;;;;;;12.73;6.35;;;8.20;99.90;;;;;;5048829;28;20075;-84
2022/05/05 01:58:06;;;;;;;9.30;5.63;;;8.20;99.90;;;;;;5051857;28;20152;-84
2022/05/05 02:00:31;;;;;;;10.80;5.68;;;8.10;99.90;;;;;;5034829;28;20037;-84
2022/05/05 02:02:57;;;;;;;12.10;6.03;;;8.10;99.90;;;;;;5033371;28;20683;-85
2022/05/05 02:05:23;;;;;;;7.18;5.45;;;8.10;99.90;;;;;;5034248;28;20045;-85
2022/05/05 02:07:49;;;;;;;10.15;5.93;;;8.10;99.90;;;;;;5032904;28;20506;-85
2022/05/05 02:10:16;;;;;;;13.95;6.07;;;8.10;99.90;;;;;;5035405;28;20075;-85
2022/05/05 02:12:43;;;;;;;12.48;6.10;;;8.10;99.90;;;;;;5032404;28;20041;-85
2022/05/05 02:15:11;;;;;;;11.52;5.70;;;8.00;99.90;;;;;;5034326;28;20429;-85
2022/05/05 02:17:38;;;;;;;11.48;5.95;;;8.00;99.90;;;;;;5034520;28;20502;-85
2022/05/05 02:20:05;;;;;;;9.93;5.70;;;8.00;99.90;;;;;;5046933;28;20048;-86
2022/05/05 02:22:31;;;;;;;10.60;5.55;;;8.00;99.90;;;;;;5034150;28;20048;-85
2022/05/05 02:24:57;;;;;;;9.25;5.60;;;7.90;99.90;;;;;;5030241;28;20438;-86
2022/05/05 02:27:23;;;;;;;9.30;5.53;;;7.90;99.90;;;;;;5051371;28;20037;-86
2022/05/05 02:29:49;;;;;;;13.50;5.82;;;7.90;99.90;;;;;;5033717;28;20122;-84
2022/05/05 02:32:16;;;;;;;11.00;5.80;;;7.80;99.90;;;;;;5049695;28;20039;-85
2022/05/05 02:34:42;;;;;;;11.15;6.05;;;7.70;99.90;;;;;;5031608;28;20459;-86
2022/05/05 02:39:52;;;;;;;11.13;5.55;;;7.70;99.90;;;;;;5060411;28;20081;-85
2022/05/05 02:42:18;;;;;;;11.73;6.43;;;7.60;99.90;;;;;;5050021;28;20495;-85
2022/05/05 02:44:44;;;;;;;14.10;6.30;;;7.60;99.90;;;;;;5032532;28;20545;-86
2022/05/05 02:47:10;;;;;;;10.57;5.93;;;7.50;99.90;;;;;;5049717;28;20037;-84
2022/05/05 02:49:36;;;;;;;9.52;5.75;;;7.50;99.90;;;;;;5034340;28;20039;-85
2022/05/05 02:52:06;;;;;;;9.57;6.03;;;7.40;99.90;;;;;;5050583;28;20033;-85
2022/05/05 02:54:47;;;;;;;11.00;5.93;;;7.40;99.90;;;;;;5049751;28;20037;-85
2022/05/05 02:57:13;;;;;;;10.07;5.50;;;7.30;99.90;;;;;;5048677;28;20128;-84
2022/05/05 02:59:39;;;;;;;8.60;5.70;;;7.20;99.90;;;;;;5050526;28;20036;-84
2022/05/05 03:02:05;;;;;;;11.10;6.03;;;7.20;99.90;;;;;;5049541;28;20064;-85
2022/05/05 03:04:30;;;;;;;10.65;5.88;;;7.10;99.90;;;;;;5048906;28;20098;-85
2022/05/05 03:06:56;;;;;;;10.13;6.13;;;7.10;99.90;;;;;;5022337;28;20072;-86
2022/05/05 03:09:21;;;;;;;12.50;6.20;;;7.20;99.90;;;;;;5031644;28;20044;-85
2022/05/05 03:11:47;;;;;;;10.15;6.13;;;7.20;99.90;;;;;;5033362;28;20691;-85
2022/05/05 03:14:12;;;;;;;9.38;5.95;;;7.20;99.90;;;;;;5032684;28;20040;-85
2022/05/05 03:16:38;;;;;;;11.88;6.35;;;7.20;99.90;;;;;;5033361;28;20411;-86
2022/05/05 03:19:04;;;;;;;15.30;6.03;;;7.20;99.90;;;;;;5033395;28;20041;-86
2022/05/05 03:21:29;;;;;;;12.00;6.47;;;7.20;99.90;;;;;;5023249;28;20437;-86
2022/05/05 03:23:55;;;;;;;12.52;6.50;;;7.20;99.90;;;;;;5047169;28;20060;-86
2022/05/05 03:26:20;;;;;;;9.35;6.00;;;7.10;99.90;;;;;;5032056;28;20041;-87
2022/05/05 03:28:46;;;;;;;11.85;6.75;;;7.10;99.90;;;;;;5030263;28;20091;-85
2022/05/05 03:31:11;;;;;;;10.43;6.03;;;7.10;99.90;;;;;;5015403;28;20049;-86
2022/05/05 03:33:37;;;;;;;12.73;6.50;;;7.10;99.90;;;;;;5049294;28;20044;-85
2022/05/05 03:36:03;;;;;;;8.95;6.65;;;7.10;99.90;;;;;;5023648;28;20033;-86
2022/05/05 03:38:29;;;;;;;11.48;6.65;;;7.20;99.90;;;;;;5049012;28;20076;-86
2022/05/05 03:40:54;;;;;;;9.98;6.68;;;7.20;99.90;;;;;;5049794;28;20073;-86
2022/05/05 03:43:20;;;;;;;13.43;7.00;;;7.10;99.90;;;;;;5049170;28;20098;-86
2022/05/05 03:45:46;;;;;;;12.27;7.40;;;7.20;99.90;;;;;;5031770;28;20040;-86
2022/05/05 03:48:12;;;;;;;11.73;7.53;;;7.10;99.90;;;;;;5050080;28;20041;-86
2022/05/05 03:50:37;;;;;;;17.70;7.00;;;7.10;99.90;;;;;;5032934;28;20037;-85
2022/05/05 03:53:03;;;;;;;8.68;7.15;;;7.20;99.90;;;;;;5049435;28;20128;-86
2022/05/05 03:55:29;;;;;;;10.90;6.85;;;7.10;99.90;;;;;;5047369;28;20105;-86
2022/05/05 03:57:55;;;;;;;13.65;6.85;;;7.20;99.90;;;;;;5049558;28;20049;-86
2022/05/05 04:00:22;;;;;;;14.73;7.93;;;7.10;99.90;;;;;;5049043;28;20036;-86
2022/05/05 04:03:30;;;;;;;13.10;7.43;;;7.20;99.90;;;;;;5032871;28;20383;-86
2022/05/05 04:05:37;;;;;;;10.90;7.18;;;7.20;99.90;;;;;;5047488;28;20052;-86
2022/05/05 04:08:04;;;;;;;15.27;7.50;;;7.20;99.90;;;;;;5048893;28;20132;-86
2022/05/05 04:10:30;;;;;;;13.88;8.00;;;7.30;99.90;;;;;;5032229;28;20040;-86
2022/05/05 04:12:57;;;;;;;16.48;7.50;;;7.30;99.90;;;;;;5046635;28;20037;-87
2022/05/05 04:15:23;;;;;;;13.00;7.65;;;7.30;99.90;;;;;;5030153;28;20564;-87
2022/05/05 04:17:48;;;;;;;13.73;8.68;;;7.40;99.90;;;;;;5028540;28;20080;-86
2022/05/05 04:20:14;;;;;;;12.35;8.43;;;7.40;99.90;;;;;;5045831;28;20108;-86
2022/05/05 04:22:41;;;;;;;15.82;8.43;;;7.40;99.90;;;;;;5046693;28;20029;-85
2022/05/05 04:25:07;;;;;;;15.32;8.73;;;7.40;99.90;;;;;;5031691;28;20134;-85
2022/05/05 04:27:33;;;;;;;15.40;8.85;;;7.40;99.90;;;;;;5031091;28;20029;-86
2022/05/05 04:29:58;;;;;;;11.82;8.40;;;7.40;99.90;;;;;;5048045;28;20040;-86
2022/05/05 04:32:24;;;;;;;14.35;8.45;;;7.50;99.90;;;;;;5046616;28;20036;-86
2022/05/05 04:34:50;;;;;;;15.88;8.90;;;7.50;99.90;;;;;;5031791;28;20115;-86
2022/05/05 04:37:15;;;;;;;15.30;8.88;;;7.60;99.90;;;;;;5046254;28;20514;-86
2022/05/05 04:39:42;;;;;;;13.10;8.63;;;7.60;99.90;;;;;;5032040;28;20033;-86
2022/05/05 04:42:10;;;;;;;12.98;8.00;;;7.60;99.90;;;;;;5030860;28;20472;-86
2022/05/05 04:44:35;;;;;;;15.18;8.55;;;7.60;99.90;;;;;;5046848;28;20406;-86
2022/05/05 04:47:01;;;;;;;11.95;8.15;;;7.70;99.90;;;;;;5047376;28;20083;-86
2022/05/05 04:49:27;;;;;;;17.77;8.75;;;7.70;99.90;;;;;;5031737;28;20036;-86
2022/05/05 04:51:52;;;;;;;20.38;9.10;;;7.70;99.90;;;;;;5048966;28;20379;-87
2022/05/05 04:54:18;;;;;;;14.80;8.77;;;7.80;99.90;;;;;;5048859;28;20127;-86
2022/05/05 04:56:44;;;;;;;14.43;8.30;;;7.80;99.90;;;;;;5041751;28;20064;-87
2022/05/05 04:59:10;;;;;;;12.10;8.10;;;7.80;99.90;;;;;;5029571;28;20071;-86
2022/05/05 05:01:35;;;;;;;15.57;8.10;;;7.90;99.90;;;;;;5031021;28;20037;-87
2022/05/05 05:04:02;;;;;;;14.65;8.77;;;7.90;99.90;;;;;;5029834;28;20059;-87
2022/05/05 05:06:28;;;;;;;14.93;8.38;;;8.00;99.90;;;;;;5031294;28;20059;-87
2022/05/05 05:08:55;;;;;;;16.13;7.82;;;8.10;99.90;;;;;;5047537;28;20124;-88
2022/05/05 05:11:21;;;;;;;14.23;8.27;;;8.10;99.90;;;;;;5048789;28;20415;-89
2022/05/05 05:13:47;;;;;;;16.35;8.00;;;8.20;99.90;;;;;;5047411;28;20467;-88
2022/05/05 05:16:12;;;;;;;13.98;8.48;;;8.20;99.90;;;;;;5030849;28;20191;-89
2022/05/05 05:18:38;;;;;;;13.77;9.20;;;8.30;99.90;;;;;;5031935;28;20051;-88
2022/05/05 05:21:04;;;;;;;13.50;8.52;;;8.30;99.90;;;;;;5047627;28;20116;-88
2022/05/05 05:23:29;;;;;;;11.93;8.20;;;8.30;99.90;;;;;;5032057;28;20045;-88
2022/05/05 05:25:55;;;;;;;18.52;8.88;;;8.30;99.90;;;;;;5047299;28;20051;-88
2022/05/05 05:28:20;;;;;;;16.45;9.00;;;8.40;99.90;;;;;;5028797;28;20060;-88
2022/05/05 05:30:46;;;;;;;14.18;7.75;;;8.40;99.90;;;;;;5031830;28;20556;-89
2022/05/05 05:33:11;;;;;;;19.70;7.75;;;8.40;99.90;;;;;;5052315;28;20045;-89
2022/05/05 05:35:37;;;;;;;15.13;8.55;;;8.40;99.90;;;;;;5033489;28;20127;-88
2022/05/05 05:38:03;;;;;;;14.60;7.82;;;8.40;99.90;;;;;;5044736;28;20060;-88
2022/05/05 05:40:28;;;;;;;13.63;8.20;;;8.40;99.90;;;;;;5047478;28;20136;-88
2022/05/05 05:42:55;;;;;;;16.45;7.93;;;8.50;99.90;;;;;;5030439;28;20033;-89
2022/05/05 05:45:21;;;;;;;12.50;7.80;;;8.50;99.90;;;;;;5045974;28;20029;-88
2022/05/05 05:47:46;;;;;;;14.02;8.13;;;8.60;99.90;;;;;;5032299;28;21912;-87
2022/05/05 05:50:12;;;;;;;13.30;7.45;;;8.70;99.90;;;;;;5029537;28;20063;-88
2022/05/05 05:52:37;;;;;;;13.13;7.90;;;8.70;99.90;;;;;;5032114;28;20047;-90
2022/05/05 05:55:03;;;;;;;12.75;8.75;;;9.20;99.90;;;;;;5031821;28;20033;-88
2022/05/05 05:57:29;;;;;;;14.07;8.85;;;8.90;99.90;;;;;;5047687;28;20044;-90
2022/05/05 05:59:54;;;;;;;15.32;7.53;;;8.90;99.90;;;;;;5031286;28;20078;-89
2022/05/05 06:05:06;;;;;;;13.77;8.32;;;9.80;99.90;;;;;;5047698;28;20033;-89
2022/05/05 06:07:32;;;;;;;10.23;7.60;;;9.20;99.90;;;;;;5032199;28;20087;-88
2022/05/05 06:09:57;;;;;;;14.45;8.18;;;9.30;99.90;;;;;;5046413;28;20040;-88
2022/05/05 06:12:23;;;;;;;14.55;8.30;;;9.30;99.90;;;;;;5031393;28;20179;-90
2022/05/05 06:14:48;;;;;;;11.82;7.72;;;9.40;99.90;;;;;;5047531;28;20037;-90
2022/05/05 06:17:14;;;;;;;11.50;8.10;;;9.40;99.90;;;;;;5054512;28;20064;-90
2022/05/05 06:19:41;;;;;;;12.85;8.10;;;9.80;99.90;;;;;;5033147;28;20045;-90
2022/05/05 06:22:07;;;;;;;13.10;7.90;;;9.50;99.90;;;;;;5031064;28;20040;-88
2022/05/05 06:24:32;;;;;;;14.65;7.93;;;9.90;99.90;;;;;;5046979;28;20517;-90
2022/05/05 06:27:00;;;;;;;13.85;8.15;;;10.10;99.90;;;;;;5047752;28;20037;-91
2022/05/05 06:29:26;;;;;;;15.35;7.72;;;9.60;99.90;;;;;;5048268;28;20037;-89
2022/05/05 06:31:52;;;;;;;13.40;8.10;;;9.60;99.90;;;;;;5045414;28;20079;-89
2022/05/05 06:34:17;;;;;;;16.00;9.35;;;9.70;99.90;;;;;;5047118;28;20043;-87
2022/05/05 06:36:43;;;;;;;16.80;9.07;;;10.30;99.90;;;;;;5048174;28;20548;-90
2022/05/05 06:39:08;;;;;;;14.90;8.98;;;9.90;99.90;;;;;;5033940;28;20045;-90
2022/05/05 06:41:35;;;;;;;12.82;8.75;;;10.50;99.90;;;;;;5047712;28;20033;-90
2022/05/05 06:44:00;;;;;;;17.10;8.20;;;10.20;99.90;;;;;;5047119;28;20503;-90
2022/05/05 06:46:27;;;;;;;13.68;8.18;;;10.40;99.90;;;;;;5048111;28;20053;-90
2022/05/05 06:48:54;;;;;;;12.32;7.78;;;10.60;99.90;;;;;;5032345;28;20092;-88
2022/05/05 06:51:20;;;;;;;14.30;8.30;;;10.60;99.90;;;;;;5046022;28;20079;-90
2022/05/05 06:53:46;;;;;;;12.40;7.82;;;10.90;99.90;;;;;;5045843;28;20683;-89
2022/05/05 06:56:11;;;;;;;14.18;8.40;;;10.50;99.90;;;;;;5034970;28;20033;-91
2022/05/05 06:58:40;;;;;;;15.73;8.43;;;11.00;99.90;;;;;;5049126;28;20472;-90
2022/05/05 07:05:23;;;;;;;12.50;7.57;;;11.30;99.90;;;;;;5044100;28;20045;-90
2022/05/05 07:06:38;;;;;;;12.60;7.78;;;10.90;99.90;;;;;;5045761;28;20045;-90
2022/05/05 07:11:48;;;;;;;;;;;11.10;99.90;;;;;;5046062;28;20048;-89
2022/05/05 07:14:13;;;;;;;13.25;7.95;;;11.50;99.90;;;;;;5032197;28;20418;-90
2022/05/05 07:16:42;;;;;;;11.70;7.50;;;11.20;99.90;;;;;;5034770;28;20506;-90
2022/05/05 07:19:09;;;;;;;12.05;7.88;;;11.80;99.90;;;;;;5046955;28;20033;-88
2022/05/05 07:21:37;;;;;;;16.80;8.38;;;12.00;99.90;;;;;;5031421;28;20045;-89
2022/05/05 07:24:03;;;;;;;15.63;7.85;;;11.50;99.90;;;;;;5046260;28;20048;-89
2022/05/05 07:26:32;;;;;;;14.43;7.25;;;11.50;99.90;;;;;;5047502;28;20040;-88
2022/05/05 07:29:01;;;;;;;17.20;8.45;;;12.00;99.90;;;;;;5035649;28;20076;-87
2022/05/05 07:31:32;;;;;;;13.73;7.75;;;12.00;99.90;;;;;;5053470;28;20045;-88
2022/05/05 07:34:06;;;;;;;12.13;7.50;;;12.20;99.90;;;;;;5049251;28;20052;-88
2022/05/05 07:36:31;;;;;;;;;;;12.20;99.90;;;;;;5050507;28;20045;-88
2022/05/05 07:39:10;;;;;;;12.05;6.47;;;11.60;99.90;;;;;;5030521;28;19995;-89
2022/05/05 07:41:44;;;;;;;12.55;6.07;;;12.50;99.90;;;;;;5031777;28;20041;-88
2022/05/05 07:44:15;;;;;;;16.70;6.68;;;12.50;99.90;;;;;;5029374;28;20041;-88
2022/05/05 07:46:45;;;;;;;11.90;6.72;;;12.50;99.90;;;;;;5031460;28;20059;-88
2022/05/05 07:49:23;;;;;;;18.13;6.70;;;12.30;99.90;;;;;;5031082;28;20041;-87
2022/05/05 07:51:55;;;;;;;12.02;6.60;;;12.70;99.90;;;;;;5030798;28;20119;-88
2022/05/05 07:54:44;;;;;;;11.18;6.20;;;12.50;99.90;;;;;;5028590;28;20048;-88
2022/05/05 07:57:23;;;;;;;10.50;6.30;;;12.60;99.90;;;;;;5039274;28;20044;-88
2022/05/05 07:59:49;;;;;;;14.90;6.40;;;12.90;99.90;;;;;;5030952;28;20053;-89
2022/05/05 08:02:25;;;;;;;13.80;6.38;;;13.10;99.90;;;;;;5051301;28;21864;-87
2022/05/05 08:04:57;;;;;;;13.25;6.72;;;12.90;99.90;;;;;;5030238;28;20171;-87
2022/05/05 08:07:41;;;;;;;13.05;7.15;;;13.30;99.90;;;;;;5030766;28;20048;-88
2022/05/05 08:10:32;;;;;;;11.00;7.35;;;13.20;99.90;;;;;;5041891;28;20099;-85
2022/05/05 08:13:17;;;;;;;15.98;6.72;;;13.30;99.90;;;;;;5044820;28;20099;-85
2022/05/05 08:16:03;;;;;;;15.00;7.35;;;13.40;99.90;;;;;;5048166;28;20049;-86
2022/05/05 08:18:32;;;;;;;14.40;6.97;;;13.40;99.90;;;;;;5032105;28;20108;-85
2022/05/05 08:21:01;;;;;;;14.27;7.20;;;13.60;99.90;;;;;;5032053;28;20033;-85
2022/05/05 08:23:26;;;;;;;13.10;7.13;;;13.70;99.90;;;;;;5032520;28;20037;-85
2022/05/05 08:31:45;;;;;;;12.18;5.82;;;14.20;99.90;;;;;;5050694;28;20060;-87
2022/05/05 08:34:13;;;;;;;9.57;5.85;;;13.80;99.90;;;;;;5054918;28;20111;-86
2022/05/05 08:37:02;;;;;;;11.98;5.65;;;14.20;99.90;;;;;;5053809;28;20048;-87
2022/05/05 08:39:40;;;;;;;8.82;5.30;;;14.90;99.90;;;;;;4996753;28;20086;-87
2022/05/05 08:42:10;;;;;;;9.60;5.70;;;14.50;99.90;;;;;;5048344;28;20069;-86
2022/05/05 08:44:45;;;;;;;9.48;5.38;;;14.50;99.90;;;;;;5030757;28;20033;-89
2022/05/05 08:47:43;;;;;;;13.43;5.60;;;14.40;99.90;;;;;;5032611;28;20044;-86
2022/05/05 08:50:15;;;;;;;13.50;5.28;;;14.50;99.90;;;;;;5057320;28;20264;-89
2022/05/05 08:53:04;;;;;;;10.55;5.05;;;15.00;99.90;;;;;;5038403;28;20037;-88
2022/05/05 08:55:53;;;;;;;10.48;5.10;;;14.90;99.90;;;;;;5047860;28;20045;-89
2022/05/05 08:58:22;;;;;;;10.70;5.03;;;15.10;99.90;;;;;;5044144;28;20132;-87
2022/05/05 09:00:54;;;;;;;11.02;4.70;;;15.40;99.90;;;;;;5052270;28;20515;-87
2022/05/05 09:03:20;;;;;;;11.27;5.25;;;15.50;99.90;;;;;;5041495;28;20517;-88
2022/05/05 09:06:04;;;;;;;15.10;5.43;;;15.40;99.90;;;;;;5040890;28;20044;-88
2022/05/05 09:08:44;;;;;;;12.52;5.85;;;15.40;99.90;;;;;;5039696;28;20098;-87
2022/05/05 09:11:18;;;;;;;11.32;5.32;;;15.00;99.90;;;;;;5039404;28;20045;-88
2022/05/05 09:14:11;;;;;;;11.35;6.10;;;15.90;99.90;;;;;;5037090;28;20120;-87
2022/05/05 09:16:47;;;;;;;15.38;6.15;;;15.80;99.90;;;;;;5037185;28;20041;-86
2022/05/05 09:19:18;;;;;;;10.43;5.53;;;16.00;99.90;;;;;;5054500;28;20124;-87
2022/05/05 09:22:05;;;;;;;10.02;5.80;;;16.10;99.90;;;;;;5055643;28;20043;-87
2022/05/05 09:24:43;;;;;;;14.70;5.82;;;16.00;99.90;;;;;;5037949;28;20080;-87
2022/05/05 09:27:28;;;;;;;11.70;5.20;;;16.10;99.90;;;;;;5039243;28;20068;-87
2022/05/05 09:30:14;;;;;;;13.50;5.90;;;16.10;99.90;;;;;;5039103;28;20391;-87
2022/05/05 09:32:45;;;;;;;8.32;5.40;;;16.20;99.90;;;;;;5038272;28;20049;-87
2022/05/05 09:35:16;;;;;;;11.00;5.93;;;16.30;99.90;;;;;;5036815;28;20033;-86
2022/05/05 09:37:52;;;;;;;12.55;6.00;;;16.40;99.90;;;;;;5037168;28;20507;-86
2022/05/05 09:40:20;;;;;;;12.50;5.63;;;16.50;99.90;;;;;;5037061;28;20041;-85
2022/05/05 09:42:52;;;;;;;11.20;5.85;;;16.90;99.90;;;;;;5053744;28;20546;-87
2022/05/05 09:45:33;;;;;;;13.43;5.75;;;16.80;99.90;;;;;;5037224;28;20067;-87
2022/05/05 09:48:04;;;;;;;10.10;6.20;;;16.90;99.90;;;;;;5036849;28;20491;-87
2022/05/05 09:58:26;;;;;;;16.67;7.18;;;17.20;99.90;;;;;;5055436;28;20128;-86
2022/05/05 10:01:13;;;;;;;11.23;6.50;;;17.20;99.90;;;;;;5052737;28;20060;-85
2022/05/05 10:04:00;;;;;;;11.20;6.63;;;17.20;99.90;;;;;;5044217;28;20052;-86
2022/05/05 10:06:35;;;;;;;12.23;6.65;;;17.10;99.90;;;;;;5045486;28;20044;-87
2022/05/05 10:09:16;;;;;;;12.10;6.40;;;17.30;99.90;;;;;;5046098;28;20392;-89
2022/05/05 10:11:46;;;;;;;10.48;6.40;;;17.20;99.90;;;;;;5035753;28;20075;-90
2022/05/05 10:14:14;;;;;;;12.57;6.40;;;17.00;99.90;;;;;;5044743;28;20044;-90
2022/05/05 10:16:42;;;;;;;12.68;6.15;;;16.60;99.90;;;;;;5041538;28;20044;-90
2022/05/05 10:19:15;;;;;;;10.18;5.93;;;17.50;99.90;;;;;;5036645;28;20395;-90
2022/05/05 10:21:52;;;;;;;9.32;6.30;;;17.60;99.90;;;;;;5047908;28;20047;-90
2022/05/05 10:24:23;;;;;;;12.63;6.35;;;17.90;99.90;;;;;;5059697;28;20041;-90
2022/05/05 10:26:51;;;;;;;9.80;6.60;;;18.20;99.90;;;;;;5035575;28;20037;-90
2022/05/05 10:29:34;;;;;;;15.50;6.60;;;18.10;99.90;;;;;;5059955;28;20090;-91
2022/05/05 10:32:16;;;;;;;9.00;6.25;;;18.40;99.90;;;;;;5036531;28;20049;-92
2022/05/05 10:35:04;;;;;;;11.18;6.20;;;18.20;99.90;;;;;;5053710;28;20045;-90
2022/05/05 10:37:37;;;;;;;11.80;6.53;;;18.10;99.90;;;;;;5047005;28;20053;-89
2022/05/05 10:40:07;;;;;;;10.93;6.30;;;18.10;99.90;;;;;;5051913;28;20071;-89
2022/05/05 10:42:40;;;;;;;12.55;6.03;;;18.30;99.90;;;;;;5035716;28;20041;-89
2022/05/05 10:45:30;;;;;;;10.77;6.15;;;18.30;99.90;;;;;;5047173;28;20495;-88
2022/05/05 10:47:57;;;;;;;10.00;6.13;;;18.50;99.90;;;;;;5049634;28;20071;-89
2022/05/05 10:51:01;;;;;;;10.85;6.25;;;18.70;99.90;;;;;;5035500;28;20057;-88
2022/05/05 10:53:40;;;;;;;18.13;7.22;;;18.80;99.90;;;;;;5011250;28;20077;-87
2022/05/05 10:56:29;;;;;;;10.85;7.07;;;18.60;99.70;;;;;;5032176;28;20503;-88
2022/05/05 10:59:06;;;;;;;11.32;6.15;;;18.50;99.70;;;;;;5033388;28;20033;-89
2022/05/05 11:01:44;;;;;;;11.70;6.28;;;18.50;99.90;;;;;;5035218;28;20120;-90
2022/05/05 11:04:15;;;;;;;10.25;6.03;;;18.70;99.90;;;;;;5015125;28;20450;-88
2022/05/05 11:06:42;;;;;;;9.50;6.78;;;19.00;99.80;;;;;;5017522;28;20067;-88
2022/05/05 11:09:09;;;;;;;9.85;6.95;;;19.00;99.90;;;;;;5032952;28;20052;-88
2022/05/05 11:11:44;;;;;;;13.02;6.47;;;19.00;99.90;;;;;;5014939;28;20067;-87
2022/05/05 11:22:58;;;;;;;10.40;6.97;;;19.40;99.00;;;;;;5033095;28;20107;-87
2022/05/05 11:25:24;;;;;;;10.80;6.80;;;19.10;99.20;;;;;;5038909;28;20096;-88
2022/05/05 11:27:56;;;;;;;12.35;7.18;;;19.00;99.50;;;;;;5055891;28;20036;-88
2022/05/05 11:30:22;;;;;;;12.18;7.53;;;18.60;99.40;;;;;;5072646;28;20042;-89
2022/05/05 11:32:48;;;;;;;14.07;7.78;;;18.60;99.80;;;;;;5056422;28;20063;-88
2022/05/05 11:35:20;;;;;;;10.88;6.90;;;18.50;99.90;;;;;;5062772;28;20033;-87
2022/05/05 11:37:45;;;;;;;11.48;7.47;;;18.80;99.90;;;;;;5034008;28;20045;-87
2022/05/05 11:40:12;;;;;;;12.93;7.75;;;19.20;99.90;;;;;;5050312;28;20503;-87
2022/05/05 11:44:14;;;;;;;11.52;7.65;;;19.40;99.90;;;;;;5034918;28;20045;-88
2022/05/05 11:45:35;;;;;;;8.75;6.70;;;19.40;99.70;;;;;;5031934;28;20056;-89
2022/05/05 11:48:20;;;;;;;9.32;6.72;;;19.60;99.80;;;;;;5015248;28;20045;-89
2022/05/05 11:50:45;;;;;;;8.88;6.38;;;19.60;99.70;;;;;;5017092;28;20384;-88
2022/05/05 11:53:16;;;;;;;9.20;6.28;;;19.50;98.60;;;;;;5024553;28;20045;-89
2022/05/05 11:55:44;;;;;;;10.30;6.47;;;19.50;99.00;;;;;;5034755;28;20037;-88
2022/05/05 12:04:00;;;;;;;11.48;6.97;;;19.70;97.10;;;;;;5051796;28;20072;-89
2022/05/05 12:06:27;;;;;;;8.27;6.72;;;19.70;97.00;;;;;;5052334;28;20041;-89
2022/05/05 12:08:55;;;;;;;9.98;6.85;;;19.80;97.50;;;;;;5051374;28;20478;-87
2022/05/05 12:11:20;;;;;;;10.27;6.82;;;19.90;97.50;;;;;;5050311;28;20048;-88
2022/05/05 12:13:46;;;;;;;9.63;6.18;;;19.90;97.00;;;;;;5032921;28;20132;-87
2022/05/05 12:16:11;;;;;;;7.90;6.40;;;19.90;96.90;;;;;;5034068;28;20064;-89
2022/05/05 12:18:50;;;;;;;9.00;5.22;;;20.00;96.20;;;;;;5033616;28;20036;-88
2022/05/05 12:21:23;;;;;;;8.15;5.68;;;20.30;96.00;;;;;;5051027;28;20037;-87
2022/05/05 12:24:02;;;;;;;7.55;5.70;;;20.50;95.10;;;;;;5033883;28;20390;-88
2022/05/05 12:26:33;;;;;;;7.88;5.72;;;21.00;96.30;;;;;;5033924;28;20044;-87
2022/05/05 12:28:59;;;;;;;9.32;6.43;;;21.10;95.30;;;;;;5050599;28;20048;-87
2022/05/05 12:31:28;;;;;;;10.40;6.57;;;20.70;94.40;;;;;;5050150;28;20045;-87
2022/05/05 12:33:54;;;;;;;8.82;6.10;;;20.40;95.10;;;;;;5032724;28;20041;-88
2022/05/05 12:36:27;;;;;;;8.13;5.93;;;20.30;95.30;;;;;;5049932;28;20045;-87
2022/05/05 12:39:08;;;;;;;8.13;5.63;;;20.40;96.10;;;;;;5049870;28;20041;-87
2022/05/05 12:41:34;;;;;;;11.65;5.85;;;20.80;95.70;;;;;;5053561;28;20545;-87
2022/05/05 12:44:08;;;;;;;8.82;6.07;;;20.90;95.10;;;;;;5053580;28;20037;-90
2022/05/05 12:46:35;;;;;;;9.60;6.80;;;20.70;94.60;;;;;;5054128;28;20486;-88
2022/05/05 12:49:00;;;;;;;11.50;6.78;;;20.40;94.00;;;;;;5053999;28;20051;-86
2022/05/05 12:51:30;;;;;;;8.25;6.00;;;20.40;94.80;;;;;;5052872;28;20501;-87
2022/05/05 12:59:36;;;;;;;10.70;6.38;;;20.40;94.30;;;;;;5053576;28;20003;-87
2022/05/05 13:02:04;;;;;;;7.63;6.07;;;20.20;95.00;;;;;;5054014;28;20061;-86
2022/05/05 13:04:30;;;;;;;13.70;6.72;;;20.60;95.20;;;;;;5053254;28;20048;-87
2022/05/05 13:06:55;;;;;;;8.48;6.50;;;20.90;95.20;;;;;;5037418;28;20049;-88
2022/05/05 13:09:21;;;;;;;13.85;6.88;;;20.70;94.70;;;;;;5037220;28;20045;-87
2022/05/05 13:11:51;;;;;;;7.70;6.30;;;20.40;94.70;;;;;;5037242;28;20048;-87
2022/05/05 13:14:17;;;;;;;8.55;6.53;;;20.30;95.00;;;;;;5036361;28;20245;-87
2022/05/05 13:16:43;;;;;;;8.82;6.95;;;20.40;95.20;;;;;;5053009;28;20048;-88
2022/05/05 13:19:09;;;;;;;9.63;7.18;;;20.50;95.10;;;;;;5036817;28;20041;-87
2022/05/05 13:21:41;;;;;;;8.75;6.47;;;20.20;94.90;;;;;;5053321;28;20082;-87
2022/05/05 13:24:08;;;;;;;11.20;6.45;;;20.40;95.20;;;;;;5051676;28;20092;-86
2022/05/05 13:26:36;;;;;;;9.15;6.68;;;20.40;94.90;;;;;;5052118;28;20108;-86
2022/05/05 13:29:02;;;;;;;8.88;6.38;;;20.30;94.60;;;;;;5030348;28;20049;-86
2022/05/05 13:31:27;;;;;;;11.35;6.85;;;20.60;94.80;;;;;;5030831;28;20529;-87
2022/05/05 13:33:53;;;;;;;11.75;7.05;;;20.80;94.80;;;;;;5050256;28;20037;-87
2022/05/05 13:36:19;;;;;;;9.35;6.35;;;21.10;95.00;;;;;;5051759;28;20495;-85
2022/05/05 13:38:44;;;;;;;9.70;6.88;;;21.40;94.90;;;;;;5052741;28;20043;-87
2022/05/05 13:41:10;;;;;;;12.57;7.20;;;21.50;94.70;;;;;;5053489;28;20044;-87
2022/05/05 13:43:36;;;;;;;11.23;6.53;;;21.10;94.10;;;;;;5041976;28;20099;-88
2022/05/05 13:46:01;;;;;;;8.32;6.25;;;21.50;94.40;;;;;;5045830;28;20041;-88